Time;durP1;ratioP1;P1;durP2;ratioP2;P2;SDS_P1;SDS_P2;PMS_P1;PMS_P2;Temp;Humidity;BMP_temperature;BMP_pressure;BME280_temperature;BME280_humidity;BME280_pressure;Samples;Min_cycle;Max_cycle;Signal;HPM_P1;HPM_P2
2022/04/21 00:00:38;;;;;;;6.15;4.22;;;17.90;61.00;;;;;;5034832;28;20503;-63
2022/04/21 00:03:04;;;;;;;7.38;4.70;;;17.90;61.00;;;;;;5034610;28;20030;-63
2022/04/21 00:05:30;;;;;;;9.25;4.38;;;17.90;62.00;;;;;;5033369;28;20033;-63
2022/04/21 00:07:55;;;;;;;5.43;4.85;;;17.90;61.00;;;;;;5034868;28;20029;-63
2022/04/21 00:10:21;;;;;;;4.45;4.05;;;17.90;61.00;;;;;;5034572;28;20057;-63
2022/04/21 00:12:47;;;;;;;5.93;4.88;;;17.90;61.00;;;;;;5033338;28;20554;-63
2022/04/21 00:15:13;;;;;;;5.22;4.45;;;17.90;61.00;;;;;;5034562;28;20041;-63
2022/04/21 00:17:38;;;;;;;4.50;4.10;;;17.90;61.20;;;;;;5033130;28;20071;-63
2022/04/21 00:20:05;;;;;;;4.85;4.25;;;17.90;61.00;;;;;;5034468;28;20025;-63
2022/04/21 00:25:15;;;;;;;5.53;4.22;;;17.90;61.20;;;;;;5034316;28;20048;-63
2022/04/21 00:27:41;;;;;;;5.93;4.35;;;17.80;61.20;;;;;;5034909;28;20018;-63
2022/04/21 00:30:07;;;;;;;8.02;4.40;;;17.90;61.20;;;;;;5033780;28;20025;-63
2022/04/21 00:32:37;;;;;;;5.88;4.40;;;17.80;61.20;;;;;;5033133;28;20049;-63
2022/04/21 00:35:07;;;;;;;5.05;4.55;;;17.90;61.20;;;;;;5033970;28;20037;-63
2022/04/21 00:37:33;;;;;;;5.75;4.50;;;17.90;61.20;;;;;;5034011;28;21546;-63
2022/04/21 00:39:59;;;;;;;4.97;4.10;;;17.90;61.30;;;;;;5034384;28;20025;-63
2022/04/21 00:42:25;;;;;;;6.07;3.72;;;17.90;61.30;;;;;;5033709;28;20025;-63
2022/04/21 00:44:50;;;;;;;4.72;4.18;;;17.90;61.30;;;;;;5034127;28;20020;-63
2022/04/21 00:47:19;;;;;;;5.57;4.30;;;17.90;61.30;;;;;;5032568;28;20052;-63
2022/04/21 00:49:45;;;;;;;5.50;4.30;;;17.90;61.30;;;;;;5032710;28;20022;-63
2022/04/21 00:52:11;;;;;;;6.03;4.35;;;17.90;61.40;;;;;;5032783;28;20027;-63
2022/04/21 00:54:36;;;;;;;4.75;4.22;;;17.90;61.40;;;;;;5032591;28;20037;-63
2022/04/21 00:57:03;;;;;;;6.55;4.40;;;17.90;61.40;;;;;;5033918;28;20029;-63
2022/04/21 00:59:28;;;;;;;5.15;4.40;;;17.90;61.40;;;;;;5033726;28;20502;-63
2022/04/21 01:04:41;;;;;;;4.80;4.05;;;17.90;61.40;;;;;;5033767;28;20082;-63
2022/04/21 01:07:10;;;;;;;4.35;3.95;;;17.90;61.50;;;;;;5032452;28;20096;-63
2022/04/21 01:09:36;;;;;;;4.65;4.03;;;17.90;61.50;;;;;;5033402;28;20484;-63
2022/04/21 01:12:03;;;;;;;7.43;4.60;;;17.90;61.50;;;;;;5032308;28;20014;-63
2022/04/21 01:14:28;;;;;;;6.53;4.22;;;17.90;61.50;;;;;;5033292;28;20038;-63
2022/04/21 01:16:54;;;;;;;4.57;4.18;;;17.90;61.50;;;;;;5015632;28;20037;-63
2022/04/21 01:19:20;;;;;;;4.18;3.78;;;17.90;61.60;;;;;;5033259;28;20025;-63
2022/04/21 01:21:46;;;;;;;4.65;4.00;;;17.90;61.60;;;;;;5033138;28;20026;-63
2022/04/21 01:24:11;;;;;;;4.70;4.15;;;17.90;61.60;;;;;;5033415;28;20025;-63
2022/04/21 01:26:37;;;;;;;4.72;4.25;;;17.90;61.50;;;;;;5033470;28;20104;-63
2022/04/21 01:29:03;;;;;;;5.15;4.10;;;17.90;61.60;;;;;;5032099;28;20059;-63
2022/04/21 01:31:30;;;;;;;6.68;3.65;;;17.90;61.60;;;;;;5032886;28;20096;-63
2022/04/21 01:33:56;;;;;;;4.95;3.97;;;17.90;61.60;;;;;;5033348;28;20034;-63
2022/04/21 01:36:21;;;;;;;4.28;3.80;;;17.90;61.70;;;;;;5033007;28;20029;-63
2022/04/21 01:41:35;;;;;;;4.38;3.97;;;17.90;61.70;;;;;;5010438;28;20048;-63
2022/04/21 01:44:02;;;;;;;5.15;4.10;;;17.80;61.70;;;;;;5011040;28;20128;-63
2022/04/21 01:46:28;;;;;;;4.03;3.63;;;17.90;61.80;;;;;;5010862;28;20038;-63
2022/04/21 01:48:53;;;;;;;4.40;4.00;;;17.80;61.70;;;;;;5011054;28;20198;-63
2022/04/21 01:51:19;;;;;;;5.80;3.97;;;17.80;61.80;;;;;;5010828;28;20109;-63
2022/04/21 01:53:45;;;;;;;4.05;3.72;;;17.80;61.70;;;;;;5010904;28;20578;-63
2022/04/21 01:56:10;;;;;;;4.45;4.03;;;17.90;61.80;;;;;;5010893;28;20575;-63
2022/04/21 01:58:36;;;;;;;4.97;3.85;;;17.80;61.70;;;;;;5010719;28;20145;-63
2022/04/21 02:01:02;;;;;;;4.30;3.67;;;17.80;61.80;;;;;;4994472;28;20030;-63
2022/04/21 02:03:32;;;;;;;4.30;3.90;;;17.90;61.80;;;;;;5010898;28;20030;-63
2022/04/21 02:05:58;;;;;;;4.50;4.10;;;17.90;61.90;;;;;;5010446;28;20062;-63
2022/04/21 02:08:23;;;;;;;4.63;3.95;;;17.90;62.00;;;;;;5010656;28;20058;-63
2022/04/21 02:10:49;;;;;;;4.72;4.32;;;17.90;62.00;;;;;;5010628;28;20097;-62
2022/04/21 02:13:15;;;;;;;4.38;3.95;;;17.80;61.90;;;;;;5010575;28;20101;-63
2022/04/21 02:15:41;;;;;;;4.35;3.88;;;17.80;61.90;;;;;;5010480;28;20100;-63
2022/04/21 02:18:07;;;;;;;5.00;4.13;;;17.90;62.00;;;;;;5017245;28;20091;-63
2022/04/21 02:20:32;;;;;;;4.72;4.22;;;17.90;62.00;;;;;;5032130;28;20052;-63
2022/04/21 02:22:58;;;;;;;4.57;4.10;;;17.90;62.00;;;;;;5032325;28;20030;-63
2022/04/21 02:25:24;;;;;;;4.38;3.97;;;17.90;62.00;;;;;;5032466;28;20021;-63
2022/04/21 02:27:50;;;;;;;4.22;3.80;;;17.90;62.00;;;;;;5032110;28;20026;-63
2022/04/21 02:30:17;;;;;;;4.85;3.58;;;17.80;61.90;;;;;;5032292;28;20026;-63
2022/04/21 02:32:42;;;;;;;6.40;3.88;;;17.90;62.10;;;;;;5032159;28;20021;-63
2022/04/21 02:35:08;;;;;;;5.65;4.45;;;17.80;62.00;;;;;;5032233;28;20109;-63
2022/04/21 02:37:38;;;;;;;5.20;4.22;;;17.90;62.10;;;;;;5031980;28;20057;-63
2022/04/21 02:40:05;;;;;;;4.85;4.10;;;17.90;62.20;;;;;;5032337;28;20021;-63
2022/04/21 02:42:30;;;;;;;4.97;3.95;;;17.90;62.20;;;;;;5030373;28;20038;-63
2022/04/21 02:44:56;;;;;;;5.07;3.88;;;17.90;62.20;;;;;;5032122;28;20017;-63
2022/04/21 02:47:22;;;;;;;6.00;4.35;;;17.90;62.20;;;;;;5032155;28;20029;-63
2022/04/21 02:49:47;;;;;;;3.80;3.50;;;17.90;62.20;;;;;;5032262;28;20044;-63
2022/04/21 02:52:13;;;;;;;4.22;3.83;;;17.90;62.20;;;;;;5030945;28;20026;-63
2022/04/21 02:57:24;;;;;;;6.22;4.13;;;17.90;63.30;;;;;;5035826;28;20072;-63
2022/04/21 02:59:57;;;;;;;3.65;3.33;;;17.90;62.30;;;;;;5036141;28;20056;-63
2022/04/21 03:02:23;;;;;;;5.38;3.90;;;17.90;62.30;;;;;;5034697;28;20081;-63
2022/04/21 03:04:49;;;;;;;4.05;3.67;;;17.90;62.40;;;;;;5035769;28;20022;-63
2022/04/21 03:07:17;;;;;;;4.07;3.67;;;17.90;62.40;;;;;;5035949;28;20057;-63
2022/04/21 03:09:43;;;;;;;5.13;4.30;;;17.90;62.40;;;;;;5035841;28;20022;-63
2022/04/21 03:12:09;;;;;;;4.10;3.70;;;17.90;62.40;;;;;;5034541;28;20036;-63
2022/04/21 03:14:36;;;;;;;4.43;4.03;;;17.90;62.40;;;;;;5035638;28;20541;-63
2022/04/21 03:17:02;;;;;;;6.65;4.35;;;17.90;62.40;;;;;;5035787;28;20030;-63
2022/04/21 03:19:28;;;;;;;4.60;4.13;;;17.90;62.40;;;;;;5034420;28;20048;-63
2022/04/21 03:24:37;;;;;;;6.78;4.18;;;17.90;62.50;;;;;;5035544;28;20020;-63
2022/04/21 03:27:03;;;;;;;4.40;3.78;;;17.90;62.50;;;;;;5033996;28;20059;-63
2022/04/21 03:29:29;;;;;;;4.45;4.05;;;17.90;62.50;;;;;;5035401;28;20491;-63
2022/04/21 03:31:55;;;;;;;4.88;3.83;;;17.90;62.50;;;;;;5035607;28;20021;-63
2022/04/21 03:34:20;;;;;;;4.47;4.07;;;17.90;62.60;;;;;;5035336;28;20021;-63
2022/04/21 03:39:12;;;;;;;4.07;3.67;;;17.90;62.60;;;;;;5034011;28;20037;-63
2022/04/21 03:41:38;;;;;;;5.97;4.00;;;17.90;62.70;;;;;;5034885;28;20400;-63
2022/04/21 03:44:05;;;;;;;3.90;3.50;;;17.90;62.70;;;;;;5035097;28;20040;-63
2022/04/21 03:46:31;;;;;;;3.88;3.55;;;17.90;62.70;;;;;;5035073;28;20433;-63
2022/04/21 03:48:56;;;;;;;4.18;3.78;;;17.90;62.70;;;;;;5035034;28;20017;-63
2022/04/21 03:51:22;;;;;;;5.70;4.07;;;17.80;62.70;;;;;;5035273;28;20029;-63
2022/04/21 03:53:48;;;;;;;4.03;3.63;;;17.90;62.70;;;;;;5034907;28;20033;-63
2022/04/21 03:56:13;;;;;;;5.55;4.22;;;17.90;62.80;;;;;;5034596;28;20108;-63
2022/04/21 03:58:39;;;;;;;4.22;3.83;;;17.90;62.80;;;;;;5034898;28;20108;-63
2022/04/21 04:01:04;;;;;;;6.30;4.43;;;17.90;62.90;;;;;;5034816;28;20037;-63
2022/04/21 04:03:30;;;;;;;4.50;4.10;;;17.90;62.90;;;;;;5034642;28;20032;-63
2022/04/21 04:05:56;;;;;;;4.13;3.72;;;17.90;62.90;;;;;;5034338;28;20037;-63
2022/04/21 04:11:06;;;;;;;4.97;3.85;;;17.90;63.00;;;;;;5034427;28;20028;-63
2022/04/21 04:13:32;;;;;;;5.20;4.20;;;17.80;62.90;;;;;;5034326;28;20025;-63
2022/04/21 04:15:59;;;;;;;4.70;4.00;;;17.80;62.90;;;;;;5034621;28;20029;-63
2022/04/21 04:18:25;;;;;;;5.05;4.15;;;17.80;64.00;;;;;;5034537;28;20025;-63
2022/04/21 04:20:51;;;;;;;6.00;3.97;;;17.80;63.00;;;;;;5034410;28;20037;-63
2022/04/21 04:23:18;;;;;;;5.50;4.15;;;17.80;63.00;;;;;;5031002;28;20029;-62
2022/04/21 04:25:43;;;;;;;5.32;4.20;;;17.90;63.10;;;;;;5031678;28;20424;-63
2022/04/21 04:28:09;;;;;;;8.25;4.25;;;17.90;63.10;;;;;;5031452;28;20496;-63
2022/04/21 04:30:39;;;;;;;4.53;3.80;;;17.90;63.10;;;;;;5032975;28;20067;-63
2022/04/21 04:33:06;;;;;;;5.38;4.15;;;17.90;63.20;;;;;;5032978;28;20488;-63
2022/04/21 04:35:31;;;;;;;4.72;4.25;;;17.90;63.20;;;;;;5031894;28;20021;-63
2022/04/21 04:37:58;;;;;;;10.90;4.20;;;17.90;63.20;;;;;;5032886;28;20026;-63
2022/04/21 04:40:24;;;;;;;5.32;4.20;;;17.90;63.20;;;;;;5032909;28;20021;-63
2022/04/21 04:42:50;;;;;;;6.30;4.70;;;17.90;63.20;;;;;;5032769;28;20049;-63
2022/04/21 04:48:00;;;;;;;4.50;3.95;;;17.90;63.20;;;;;;5034291;28;20040;-63
2022/04/21 04:50:25;;;;;;;4.65;4.03;;;17.90;63.30;;;;;;5033985;28;20025;-63
2022/04/21 04:52:57;;;;;;;5.18;4.07;;;17.90;63.20;;;;;;5033605;28;20503;-63
2022/04/21 04:55:23;;;;;;;5.28;3.97;;;17.90;63.30;;;;;;5033909;28;20276;-63
2022/04/21 04:57:50;;;;;;;4.40;4.00;;;17.90;63.30;;;;;;5033670;28;20025;-63
2022/04/21 05:00:16;;;;;;;6.13;3.85;;;17.90;63.40;;;;;;5033767;28;20482;-63
2022/04/21 05:02:41;;;;;;;4.80;4.07;;;17.80;63.30;;;;;;5033850;28;20020;-63
2022/04/21 05:05:08;;;;;;;6.28;4.53;;;17.90;63.40;;;;;;5033474;28;20077;-63
2022/04/21 05:07:35;;;;;;;4.35;3.80;;;17.90;63.40;;;;;;5033380;28;20109;-63
2022/04/21 05:10:01;;;;;;;4.75;4.25;;;17.90;63.40;;;;;;5033927;28;20018;-62
2022/04/21 05:12:27;;;;;;;7.25;4.95;;;17.90;63.40;;;;;;5032123;28;20022;-63
2022/04/21 05:14:53;;;;;;;9.98;5.85;;;17.90;63.40;;;;;;5033483;28;20026;-63
2022/04/21 05:17:24;;;;;;;9.38;7.00;;;17.90;63.30;;;;;;5032817;28;20029;-62
2022/04/21 05:19:54;;;;;;;10.13;7.82;;;17.80;63.00;;;;;;5033301;28;20052;-63
2022/04/21 05:22:21;;;;;;;9.98;7.90;;;17.80;63.00;;;;;;5033024;28;20028;-62
2022/04/21 05:24:48;;;;;;;9.95;8.10;;;17.80;62.90;;;;;;5032109;28;20388;-62
2022/04/21 05:27:13;;;;;;;11.95;9.13;;;17.70;62.90;;;;;;5026977;28;20021;-63
2022/04/21 05:32:28;;;;;;;10.55;8.15;;;17.70;62.90;;;;;;5031789;28;20522;-63
2022/04/21 05:34:54;;;;;;;11.68;8.40;;;17.70;63.00;;;;;;5031741;28;20068;-62
2022/04/21 05:37:21;;;;;;;9.80;7.72;;;17.70;62.90;;;;;;5031626;28;20017;-63
2022/04/21 05:39:47;;;;;;;10.55;7.90;;;17.70;62.80;;;;;;5033351;28;20038;-62
2022/04/21 05:42:23;;;;;;;11.23;8.00;;;17.70;62.90;;;;;;5031749;28;20499;-62
2022/04/21 05:44:52;;;;;;;11.15;8.13;;;17.70;62.70;;;;;;5030262;28;20509;-62
2022/04/21 05:47:19;;;;;;;14.15;7.93;;;17.70;62.90;;;;;;5031805;28;20068;-63
2022/04/21 05:49:45;;;;;;;10.57;7.85;;;17.70;62.80;;;;;;5031336;28;20025;-62
2022/04/21 05:52:11;;;;;;;13.10;8.48;;;17.70;62.90;;;;;;5032009;28;20036;-62
2022/04/21 05:54:37;;;;;;;16.67;8.88;;;17.70;62.70;;;;;;5030989;28;20468;-62
2022/04/21 05:57:03;;;;;;;11.60;7.93;;;17.70;62.80;;;;;;5032122;28;20028;-62
2022/04/21 05:59:28;;;;;;;17.30;9.25;;;17.70;62.70;;;;;;5032236;28;20160;-62
2022/04/21 06:01:54;;;;;;;17.38;9.40;;;17.70;62.70;;;;;;5032371;28;20096;-62
2022/04/21 06:04:22;;;;;;;13.95;9.38;;;17.70;62.70;;;;;;5032378;28;20112;-62
2022/04/21 06:06:48;;;;;;;13.75;9.18;;;17.70;62.70;;;;;;5032408;28;20515;-62
2022/04/21 06:09:14;;;;;;;17.80;9.60;;;17.60;62.60;;;;;;5032654;28;20053;-62
2022/04/21 06:11:39;;;;;;;16.05;9.57;;;17.70;62.70;;;;;;5029805;28;20021;-62
2022/04/21 06:14:05;;;;;;;20.27;9.48;;;17.70;62.70;;;;;;5032576;28;20060;-62
2022/04/21 06:16:30;;;;;;;19.05;9.57;;;17.70;62.70;;;;;;5032630;28;20033;-62
2022/04/21 06:18:56;;;;;;;15.80;9.85;;;17.60;62.70;;;;;;5032350;28;20029;-62
2022/04/21 06:21:22;;;;;;;16.90;9.70;;;17.60;62.60;;;;;;5032070;28;20025;-62
2022/04/21 06:23:47;;;;;;;19.15;9.60;;;17.70;62.70;;;;;;5032306;28;20045;-62
2022/04/21 06:26:13;;;;;;;17.42;10.13;;;17.70;62.70;;;;;;5032408;28;20021;-62
2022/04/21 06:28:41;;;;;;;18.23;9.70;;;17.60;62.60;;;;;;5031240;28;20029;-62
2022/04/21 06:31:07;;;;;;;19.17;10.43;;;17.60;62.60;;;;;;5032370;28;20929;-62
2022/04/21 06:33:32;;;;;;;15.10;10.07;;;17.60;62.60;;;;;;5032255;28;20113;-62
2022/04/21 06:35:59;;;;;;;17.42;10.13;;;17.60;62.60;;;;;;5032313;28;20096;-62
2022/04/21 06:38:25;;;;;;;17.75;10.27;;;17.60;62.60;;;;;;5032139;28;20084;-62
2022/04/21 06:40:51;;;;;;;20.00;9.57;;;17.60;62.60;;;;;;5032274;28;20049;-62
2022/04/21 06:48:48;;;;;;;16.30;9.90;;;17.50;62.60;;;;;;5029717;28;20028;-62
2022/04/21 06:51:15;;;;;;;13.65;8.73;;;17.50;62.70;;;;;;5032061;28;20496;-62
2022/04/21 06:53:42;;;;;;;16.55;10.00;;;17.50;62.70;;;;;;5012378;28;20113;-62
2022/04/21 06:56:07;;;;;;;16.85;10.00;;;17.50;62.60;;;;;;5017301;28;20140;-62
2022/04/21 06:58:33;;;;;;;17.33;10.07;;;17.50;62.60;;;;;;5032067;28;20492;-63
2022/04/21 07:00:59;;;;;;;19.55;9.60;;;17.60;62.60;;;;;;5031904;28;20026;-62
2022/04/21 07:03:24;;;;;;;16.55;9.65;;;17.50;62.60;;;;;;5031873;28;20025;-62
2022/04/21 07:05:55;;;;;;;20.73;9.82;;;17.50;62.60;;;;;;5019177;28;20105;-62
2022/04/21 07:08:21;;;;;;;15.38;9.85;;;17.50;62.60;;;;;;5012249;28;20457;-62
2022/04/21 07:10:47;;;;;;;15.15;9.43;;;17.50;62.60;;;;;;5012185;28;20515;-63
2022/04/21 07:13:12;;;;;;;15.55;9.80;;;17.50;62.60;;;;;;5012081;28;20026;-62
2022/04/21 07:15:40;;;;;;;15.32;10.00;;;17.50;62.60;;;;;;5012093;28;20022;-62
2022/04/21 07:18:06;;;;;;;13.60;9.13;;;17.50;62.60;;;;;;5011911;28;20037;-62
2022/04/21 07:20:32;;;;;;;15.93;9.85;;;17.50;62.50;;;;;;5010785;28;20053;-62
2022/04/21 07:22:57;;;;;;;15.38;9.77;;;17.50;62.50;;;;;;5026645;28;20029;-62
2022/04/21 07:25:23;;;;;;;16.52;9.30;;;17.50;62.50;;;;;;5031925;28;20037;-62
2022/04/21 07:27:49;;;;;;;14.85;9.60;;;17.50;62.50;;;;;;5031644;28;20033;-62
2022/04/21 07:30:15;;;;;;;15.65;9.82;;;17.50;62.50;;;;;;5031812;28;20547;-63
2022/04/21 07:32:40;;;;;;;18.92;10.15;;;17.50;62.50;;;;;;5030320;28;20113;-62
2022/04/21 07:35:06;;;;;;;15.77;10.05;;;17.50;62.50;;;;;;5030436;28;20061;-62
2022/04/21 07:37:33;;;;;;;15.80;9.75;;;17.50;62.50;;;;;;5031496;28;20052;-62
2022/04/21 07:39:59;;;;;;;13.55;9.77;;;17.50;62.50;;;;;;5031826;28;20388;-62
2022/04/21 07:42:24;;;;;;;15.63;8.90;;;17.50;62.50;;;;;;5035269;28;20033;-62
2022/04/21 07:44:51;;;;;;;13.23;9.07;;;17.50;62.50;;;;;;5035064;28;20037;-62
2022/04/21 07:47:17;;;;;;;14.95;9.10;;;17.50;62.50;;;;;;5035064;28;20024;-63
2022/04/21 07:49:45;;;;;;;15.30;9.32;;;17.50;62.50;;;;;;5034943;28;20104;-62
2022/04/21 07:55:23;;;;;;;16.38;8.93;;;17.50;62.40;;;;;;5034954;28;20044;-62
2022/04/21 07:57:49;;;;;;;13.82;8.82;;;17.40;62.50;;;;;;5033854;28;20025;-62
2022/04/21 08:00:16;;;;;;;15.38;9.80;;;17.40;62.50;;;;;;5033484;28;20410;-62
2022/04/21 08:02:42;;;;;;;16.20;9.65;;;17.40;62.50;;;;;;5034713;28;20551;-62
2022/04/21 08:05:09;;;;;;;14.82;9.55;;;17.40;62.40;;;;;;5034640;28;20064;-62
2022/04/21 08:07:36;;;;;;;15.32;9.02;;;17.40;62.50;;;;;;5034609;28;20025;-62
2022/04/21 08:10:05;;;;;;;17.42;9.85;;;17.40;62.50;;;;;;5034666;28;20025;-62
2022/04/21 08:12:44;;;;;;;14.27;8.82;;;17.40;62.40;;;;;;5034984;28;20563;-62
2022/04/21 08:15:11;;;;;;;12.98;9.32;;;17.40;62.30;;;;;;5034456;28;20021;-62
2022/04/21 08:17:37;;;;;;;14.15;8.75;;;17.40;62.50;;;;;;5033231;28;20025;-62
2022/04/21 08:20:04;;;;;;;14.05;9.48;;;17.40;62.40;;;;;;5034371;28;20029;-62
2022/04/21 08:22:30;;;;;;;13.45;9.38;;;17.40;62.40;;;;;;5034474;28;20542;-62
2022/04/21 08:33:08;;;;;;;12.15;8.43;;;17.30;62.40;;;;;;5034363;28;20048;-62
2022/04/21 08:35:33;;;;;;;13.35;9.13;;;17.30;62.40;;;;;;5034437;28;20029;-62
2022/04/21 08:37:59;;;;;;;14.02;8.43;;;17.30;62.30;;;;;;5034104;28;20049;-63
2022/04/21 08:40:27;;;;;;;13.05;9.00;;;17.40;62.40;;;;;;5034208;28;20052;-62
2022/04/21 08:42:54;;;;;;;12.55;8.75;;;17.40;62.30;;;;;;5032749;28;20044;-62
2022/04/21 08:45:20;;;;;;;12.95;8.27;;;17.30;62.30;;;;;;5016731;28;20022;-62
2022/04/21 08:47:46;;;;;;;12.90;8.65;;;17.40;62.40;;;;;;5032871;28;20040;-62
2022/04/21 08:50:14;;;;;;;12.70;8.13;;;17.30;62.20;;;;;;5016180;28;20072;-63
2022/04/21 08:52:41;;;;;;;13.73;9.07;;;17.30;62.30;;;;;;5033177;28;20563;-62
2022/04/21 08:55:07;;;;;;;13.02;8.85;;;17.30;62.20;;;;;;5032607;28;20026;-62
2022/04/21 08:57:35;;;;;;;12.60;9.07;;;17.30;62.20;;;;;;5033599;28;20117;-62
2022/04/21 09:00:01;;;;;;;13.02;9.35;;;17.30;62.20;;;;;;5033591;28;20025;-62
2022/04/21 09:02:38;;;;;;;12.20;8.85;;;17.30;62.20;;;;;;5033777;28;20032;-62
2022/04/21 09:05:04;;;;;;;12.35;8.52;;;17.40;62.20;;;;;;5033789;28;20047;-62
2022/04/21 09:07:29;;;;;;;12.18;8.40;;;17.30;62.20;;;;;;5033640;28;20045;-62
2022/04/21 09:10:11;;;;;;;12.68;8.77;;;17.30;62.20;;;;;;5033538;28;20065;-62
2022/04/21 09:12:46;;;;;;;13.75;8.68;;;17.30;62.10;;;;;;5033832;28;20104;-62
2022/04/21 09:15:14;;;;;;;11.93;8.30;;;17.30;62.20;;;;;;5033306;28;20415;-62
2022/04/21 09:17:47;;;;;;;12.57;9.07;;;17.30;62.20;;;;;;5016235;28;20052;-62
2022/04/21 09:20:13;;;;;;;12.10;8.27;;;17.30;62.10;;;;;;5031822;28;20101;-62
2022/04/21 09:22:41;;;;;;;14.45;8.60;;;17.30;62.20;;;;;;5033448;28;20021;-62
2022/04/21 09:25:07;;;;;;;11.65;9.00;;;17.30;62.20;;;;;;5033150;28;20028;-62
2022/04/21 09:27:43;;;;;;;11.52;8.32;;;17.30;62.20;;;;;;5033331;28;20109;-62
2022/04/21 09:30:10;;;;;;;10.82;8.32;;;17.30;62.10;;;;;;5032992;28;20018;-62
2022/04/21 09:32:40;;;;;;;12.18;8.10;;;17.30;62.10;;;;;;5033094;28;20514;-62
2022/04/21 09:35:06;;;;;;;12.18;7.78;;;17.30;62.10;;;;;;5033163;28;20057;-62
2022/04/21 09:37:33;;;;;;;11.63;8.20;;;17.30;62.10;;;;;;5032998;28;20109;-62
2022/04/21 09:39:58;;;;;;;12.48;8.35;;;17.30;62.10;;;;;;5031941;28;20026;-62
2022/04/21 09:42:28;;;;;;;11.80;8.38;;;17.30;62.10;;;;;;5015244;28;20124;-63
2022/04/21 09:47:49;;;;;;;11.50;8.68;;;17.30;62.00;;;;;;5032305;28;20044;-63
2022/04/21 09:50:14;;;;;;;11.57;8.10;;;17.20;62.10;;;;;;5032608;28;20025;-62
2022/04/21 09:52:47;;;;;;;11.18;8.55;;;17.20;62.00;;;;;;5032972;28;20016;-62
2022/04/21 09:55:27;;;;;;;11.85;8.57;;;17.30;62.10;;;;;;5032755;28;20025;-62
2022/04/21 09:58:08;;;;;;;10.80;8.05;;;17.30;62.00;;;;;;5012789;28;20485;-62
2022/04/21 10:00:35;;;;;;;12.77;8.30;;;17.20;62.00;;;;;;5012991;28;20029;-62
2022/04/21 10:03:02;;;;;;;12.45;8.18;;;17.20;62.00;;;;;;5012664;28;20030;-62
2022/04/21 10:05:34;;;;;;;10.60;8.18;;;17.20;62.00;;;;;;5012945;28;20010;-62
2022/04/21 10:08:00;;;;;;;12.15;8.45;;;17.30;62.10;;;;;;5011744;28;20028;-62
2022/04/21 10:10:28;;;;;;;9.23;7.80;;;17.20;62.00;;;;;;5012909;28;20097;-62
2022/04/21 10:12:55;;;;;;;11.52;8.40;;;17.30;62.10;;;;;;5011636;28;20037;-62
2022/04/21 10:15:21;;;;;;;10.15;8.10;;;17.20;62.00;;;;;;5012903;28;20109;-62
2022/04/21 10:17:46;;;;;;;12.18;7.72;;;17.20;62.00;;;;;;5011612;28;20101;-62
2022/04/21 10:20:12;;;;;;;10.98;7.70;;;17.20;62.00;;;;;;5012569;28;20148;-63
2022/04/21 10:22:37;;;;;;;12.07;7.88;;;17.20;61.90;;;;;;5013005;28;20030;-63
2022/04/21 10:25:05;;;;;;;10.38;8.02;;;17.20;62.00;;;;;;5011424;28;20392;-62
2022/04/21 10:27:46;;;;;;;11.52;7.90;;;17.30;62.00;;;;;;5011203;28;20507;-62
2022/04/21 10:30:19;;;;;;;9.52;7.22;;;17.20;61.90;;;;;;5012480;28;20049;-62
2022/04/21 10:32:54;;;;;;;12.45;8.27;;;17.20;62.00;;;;;;5012692;28;20066;-62
2022/04/21 10:35:23;;;;;;;11.13;7.20;;;17.20;62.00;;;;;;5012486;28;20038;-62
2022/04/21 10:38:18;;;;;;;9.10;7.32;;;17.20;62.00;;;;;;5012519;28;20567;-63
2022/04/21 10:40:56;;;;;;;11.30;8.02;;;17.20;61.70;;;;;;5012757;28;20026;-62
2022/04/21 10:43:22;;;;;;;11.30;8.05;;;17.20;61.90;;;;;;5012191;28;20038;-62
2022/04/21 10:46:21;;;;;;;9.88;7.30;;;17.20;62.00;;;;;;5012351;28;20133;-62
2022/04/21 10:48:47;;;;;;;9.45;7.65;;;17.20;61.70;;;;;;5030952;28;20021;-62
2022/04/21 10:51:13;;;;;;;11.02;7.65;;;17.20;62.00;;;;;;5031996;28;20023;-62
2022/04/21 10:59:38;;;;;;;8.85;6.95;;;17.20;62.00;;;;;;5032102;28;20095;-62
2022/04/21 11:02:13;;;;;;;10.23;7.45;;;17.10;62.00;;;;;;5030796;28;20028;-63
2022/04/21 11:04:38;;;;;;;8.98;7.07;;;17.20;61.90;;;;;;5031054;28;20033;-62
2022/04/21 11:07:11;;;;;;;10.10;6.90;;;17.20;62.00;;;;;;5031834;28;20033;-63
2022/04/21 11:09:39;;;;;;;9.43;7.10;;;17.20;61.90;;;;;;5031967;28;20039;-63
2022/04/21 11:12:06;;;;;;;9.45;7.28;;;17.20;62.00;;;;;;5030566;28;20057;-63
2022/04/21 11:14:33;;;;;;;10.98;7.68;;;17.20;61.90;;;;;;5014235;28;20045;-62
2022/04/21 11:17:02;;;;;;;10.98;7.18;;;17.20;61.90;;;;;;5035475;28;20029;-62
2022/04/21 11:19:50;;;;;;;9.77;7.65;;;17.20;61.80;;;;;;5035667;28;20533;-62
2022/04/21 11:22:34;;;;;;;11.75;8.00;;;17.20;61.60;;;;;;5035381;28;20023;-63
2022/04/21 11:25:01;;;;;;;9.00;7.50;;;17.20;61.90;;;;;;5020146;28;20017;-62
2022/04/21 11:27:27;;;;;;;12.27;8.45;;;17.20;61.90;;;;;;5035423;28;20053;-62
2022/04/21 11:30:20;;;;;;;12.30;7.63;;;17.20;61.90;;;;;;5034351;28;20072;-63
2022/04/21 11:32:52;;;;;;;10.10;7.65;;;17.20;61.70;;;;;;5035352;28;20499;-62
2022/04/21 11:35:18;;;;;;;12.15;8.48;;;17.20;61.80;;;;;;5035524;28;20025;-62
2022/04/21 11:37:52;;;;;;;11.40;8.05;;;17.20;61.80;;;;;;5034084;28;20076;-63
2022/04/21 11:40:27;;;;;;;11.32;8.73;;;17.20;61.90;;;;;;5035149;28;20499;-62
2022/04/21 11:42:54;;;;;;;10.63;8.05;;;17.20;61.80;;;;;;5035288;28;20029;-62
2022/04/21 11:45:26;;;;;;;11.48;8.10;;;17.20;61.80;;;;;;5035094;28;20025;-62
2022/04/21 11:47:52;;;;;;;12.38;8.82;;;17.20;61.80;;;;;;5035287;28;20021;-62
2022/04/21 11:50:22;;;;;;;10.68;8.05;;;17.20;61.80;;;;;;5034780;28;20029;-62
2022/04/21 11:52:52;;;;;;;11.65;8.05;;;17.20;61.70;;;;;;5035135;28;20033;-63
2022/04/21 11:55:30;;;;;;;10.10;7.57;;;17.20;61.70;;;;;;5034822;28;20499;-62
2022/04/21 11:57:56;;;;;;;10.93;7.88;;;17.20;61.80;;;;;;5035130;28;20029;-62
2022/04/21 12:08:46;;;;;;;8.90;7.20;;;17.20;61.90;;;;;;5013010;28;20528;-62
2022/04/21 12:11:14;;;;;;;13.40;8.65;;;17.20;61.90;;;;;;5012616;28;20041;-63
2022/04/21 12:13:39;;;;;;;10.45;7.82;;;17.20;61.90;;;;;;4996678;28;20036;-62
2022/04/21 12:16:25;;;;;;;9.15;7.60;;;17.20;61.80;;;;;;4996617;28;20033;-62
2022/04/21 12:18:51;;;;;;;9.20;7.15;;;17.20;61.80;;;;;;5012728;28;20397;-62
2022/04/21 12:21:20;;;;;;;8.82;7.05;;;17.20;61.80;;;;;;5012497;28;20030;-62
2022/04/21 12:23:46;;;;;;;9.27;7.45;;;17.20;61.80;;;;;;5012282;28;20073;-62
2022/04/21 12:26:11;;;;;;;9.18;7.38;;;17.20;61.90;;;;;;5012391;28;20033;-62
2022/04/21 12:28:47;;;;;;;9.50;6.65;;;17.20;61.80;;;;;;5012453;28;20030;-62
2022/04/21 12:31:17;;;;;;;10.32;7.28;;;17.30;61.80;;;;;;5012516;28;20501;-62
2022/04/21 12:33:43;;;;;;;9.88;6.93;;;17.20;61.80;;;;;;4996698;28;20041;-62
2022/04/21 12:36:08;;;;;;;8.25;6.90;;;17.20;61.80;;;;;;5012297;28;20475;-62
2022/04/21 12:38:54;;;;;;;11.73;7.82;;;17.30;61.80;;;;;;5011868;28;20049;-63
2022/04/21 12:41:20;;;;;;;8.43;6.65;;;17.30;61.80;;;;;;5012426;28;20037;-62
2022/04/21 12:43:46;;;;;;;8.98;6.25;;;17.30;61.90;;;;;;5028812;28;20046;-62
2022/04/21 12:46:12;;;;;;;7.90;6.70;;;17.30;61.90;;;;;;5032712;28;20024;-62
2022/04/21 12:48:37;;;;;;;8.77;6.70;;;17.30;61.90;;;;;;5032871;28;20439;-62
2022/04/21 12:51:07;;;;;;;9.65;7.00;;;17.30;61.90;;;;;;5032742;28;20511;-62
2022/04/21 12:53:36;;;;;;;8.65;6.55;;;17.30;61.90;;;;;;5033726;28;20021;-62
2022/04/21 12:56:13;;;;;;;8.30;6.45;;;17.30;61.90;;;;;;5034007;28;20029;-62
2022/04/21 12:58:39;;;;;;;8.68;5.95;;;17.30;61.80;;;;;;5033843;28;20087;-62
2022/04/21 13:01:05;;;;;;;8.80;5.93;;;17.30;62.00;;;;;;5033797;28;20439;-62
2022/04/21 13:03:32;;;;;;;8.30;6.28;;;17.30;61.90;;;;;;5033583;28;20492;-62
2022/04/21 13:05:58;;;;;;;7.45;5.85;;;17.30;61.90;;;;;;5033635;28;20395;-62
2022/04/21 13:08:25;;;;;;;7.32;5.80;;;17.30;61.90;;;;;;5033701;28;20052;-62
2022/04/21 13:10:53;;;;;;;6.97;5.78;;;17.30;61.90;;;;;;5033512;28;20558;-63
2022/04/21 13:13:19;;;;;;;7.53;5.55;;;17.30;61.90;;;;;;5032379;28;20017;-62
2022/04/21 13:15:45;;;;;;;7.88;6.38;;;17.30;61.90;;;;;;5033593;28;20109;-62
2022/04/21 13:18:11;;;;;;;7.95;5.38;;;17.30;61.90;;;;;;5033651;28;20022;-62
2022/04/21 13:23:24;;;;;;;8.13;6.03;;;17.30;61.90;;;;;;5033405;28;20064;-62
2022/04/21 13:25:49;;;;;;;6.38;5.63;;;17.30;62.00;;;;;;5033299;28;20113;-63
2022/04/21 13:28:15;;;;;;;7.25;5.40;;;17.40;62.00;;;;;;5033154;28;20043;-62
2022/04/21 13:30:41;;;;;;;7.18;5.53;;;17.30;62.00;;;;;;5033583;28;20071;-62
2022/04/21 13:33:21;;;;;;;8.60;6.10;;;17.40;62.00;;;;;;5033150;28;20029;-63
2022/04/21 13:35:50;;;;;;;7.10;5.28;;;17.40;62.00;;;;;;5033035;28;20030;-62
2022/04/21 13:38:16;;;;;;;7.88;5.93;;;17.40;62.00;;;;;;5032245;28;20057;-63
2022/04/21 13:40:43;;;;;;;6.80;5.35;;;17.40;62.00;;;;;;5032160;28;20029;-62
2022/04/21 13:43:08;;;;;;;7.20;5.82;;;17.40;62.00;;;;;;5032960;28;20033;-62
2022/04/21 13:45:38;;;;;;;5.97;5.25;;;17.40;62.00;;;;;;5032835;28;20024;-62